sensor_id;sensor_type;location;lat;lon;timestamp;P1;durP1;ratioP1;P2;durP2;ratioP2
20334;SDS011;10325;51.468;5.804;2023-06-04T00:01:16;0.73;;;0.70;;
20334;SDS011;10325;51.468;5.804;2023-06-04T00:03:46;1.77;;;0.77;;
20334;SDS011;10325;51.468;5.804;2023-06-04T00:06:17;0.80;;;0.80;;
20334;SDS011;10325;51.468;5.804;2023-06-04T00:08:48;0.80;;;0.80;;
20334;SDS011;10325;51.468;5.804;2023-06-04T00:11:20;0.80;;;0.80;;
20334;SDS011;10325;51.468;5.804;2023-06-04T00:13:52;1.20;;;0.97;;
20334;SDS011;10325;51.468;5.804;2023-06-04T00:16:23;1.43;;;1.10;;
20334;SDS011;10325;51.468;5.804;2023-06-04T00:18:54;1.00;;;1.00;;
20334;SDS011;10325;51.468;5.804;2023-06-04T00:21:24;1.20;;;0.83;;
20334;SDS011;10325;51.468;5.804;2023-06-04T00:23:55;1.30;;;0.80;;
20334;SDS011;10325;51.468;5.804;2023-06-04T00:26:41;1.07;;;0.77;;
20334;SDS011;10325;51.468;5.804;2023-06-04T00:29:12;0.90;;;0.90;;
20334;SDS011;10325;51.468;5.804;2023-06-04T00:31:42;0.90;;;0.90;;
20334;SDS011;10325;51.468;5.804;2023-06-04T00:34:14;1.10;;;0.80;;
20334;SDS011;10325;51.468;5.804;2023-06-04T00:36:40;0.97;;;0.90;;
20334;SDS011;10325;51.468;5.804;2023-06-04T00:39:12;0.80;;;0.80;;
20334;SDS011;10325;51.468;5.804;2023-06-04T00:41:43;1.03;;;0.83;;
20334;SDS011;10325;51.468;5.804;2023-06-04T00:44:12;0.87;;;0.87;;
20334;SDS011;10325;51.468;5.804;2023-06-04T00:46:42;1.63;;;1.10;;
20334;SDS011;10325;51.468;5.804;2023-06-04T00:49:13;1.07;;;0.97;;
20334;SDS011;10325;51.468;5.804;2023-06-04T00:51:45;0.80;;;0.80;;
20334;SDS011;10325;51.468;5.804;2023-06-04T00:54:16;1.00;;;0.90;;
20334;SDS011;10325;51.468;5.804;2023-06-04T00:56:47;1.07;;;0.90;;
20334;SDS011;10325;51.468;5.804;2023-06-04T00:59:17;2.00;;;1.00;;
20334;SDS011;10325;51.468;5.804;2023-06-04T01:02:12;0.80;;;0.80;;
20334;SDS011;10325;51.468;5.804;2023-06-04T01:08:00;1.40;;;1.00;;
20334;SDS011;10325;51.468;5.804;2023-06-04T01:10:30;0.83;;;0.70;;
20334;SDS011;10325;51.468;5.804;2023-06-04T01:13:02;2.50;;;1.00;;
20334;SDS011;10325;51.468;5.804;2023-06-04T01:15:32;1.10;;;1.00;;
20334;SDS011;10325;51.468;5.804;2023-06-04T01:18:01;1.00;;;0.80;;
20334;SDS011;10325;51.468;5.804;2023-06-04T01:20:40;0.90;;;0.90;;
20334;SDS011;10325;51.468;5.804;2023-06-04T01:26:36;0.77;;;0.77;;
20334;SDS011;10325;51.468;5.804;2023-06-04T01:29:06;1.33;;;1.10;;
20334;SDS011;10325;51.468;5.804;2023-06-04T01:31:42;1.03;;;0.90;;
20334;SDS011;10325;51.468;5.804;2023-06-04T01:34:14;1.00;;;0.90;;
20334;SDS011;10325;51.468;5.804;2023-06-04T01:36:42;1.13;;;0.97;;
20334;SDS011;10325;51.468;5.804;2023-06-04T01:39:13;1.00;;;0.97;;
20334;SDS011;10325;51.468;5.804;2023-06-04T01:41:42;0.80;;;0.80;;
20334;SDS011;10325;51.468;5.804;2023-06-04T01:44:12;1.07;;;0.90;;
20334;SDS011;10325;51.468;5.804;2023-06-04T01:46:43;1.20;;;0.77;;
20334;SDS011;10325;51.468;5.804;2023-06-04T01:49:13;1.00;;;0.83;;
20334;SDS011;10325;51.468;5.804;2023-06-04T01:51:45;0.87;;;0.70;;
20334;SDS011;10325;51.468;5.804;2023-06-04T01:54:17;1.33;;;0.93;;
20334;SDS011;10325;51.468;5.804;2023-06-04T01:56:46;0.80;;;0.80;;
20334;SDS011;10325;51.468;5.804;2023-06-04T01:59:18;1.10;;;0.70;;
20334;SDS011;10325;51.468;5.804;2023-06-04T02:01:52;0.70;;;0.70;;
20334;SDS011;10325;51.468;5.804;2023-06-04T02:04:20;0.80;;;0.60;;
20334;SDS011;10325;51.468;5.804;2023-06-04T02:06:54;1.13;;;0.90;;
20334;SDS011;10325;51.468;5.804;2023-06-04T02:09:25;0.93;;;0.93;;
20334;SDS011;10325;51.468;5.804;2023-06-04T02:11:55;1.07;;;0.83;;
20334;SDS011;10325;51.468;5.804;2023-06-04T02:14:27;1.07;;;0.97;;
20334;SDS011;10325;51.468;5.804;2023-06-04T02:17:04;0.70;;;0.67;;
20334;SDS011;10325;51.468;5.804;2023-06-04T02:19:47;1.17;;;0.87;;
20334;SDS011;10325;51.468;5.804;2023-06-04T02:22:19;1.03;;;0.93;;
20334;SDS011;10325;51.468;5.804;2023-06-04T02:25:04;0.87;;;0.87;;
20334;SDS011;10325;51.468;5.804;2023-06-04T02:27:38;0.87;;;0.87;;
20334;SDS011;10325;51.468;5.804;2023-06-04T02:30:10;2.93;;;0.90;;
20334;SDS011;10325;51.468;5.804;2023-06-04T02:32:41;0.90;;;0.80;;
20334;SDS011;10325;51.468;5.804;2023-06-04T02:35:19;1.10;;;1.00;;
20334;SDS011;10325;51.468;5.804;2023-06-04T02:37:52;0.80;;;0.80;;
20334;SDS011;10325;51.468;5.804;2023-06-04T02:40:22;0.80;;;0.80;;
20334;SDS011;10325;51.468;5.804;2023-06-04T02:42:55;2.10;;;0.90;;
20334;SDS011;10325;51.468;5.804;2023-06-04T02:45:23;0.83;;;0.83;;
20334;SDS011;10325;51.468;5.804;2023-06-04T02:47:51;0.80;;;0.80;;
20334;SDS011;10325;51.468;5.804;2023-06-04T02:50:22;1.97;;;0.70;;
20334;SDS011;10325;51.468;5.804;2023-06-04T02:52:53;1.03;;;0.90;;
20334;SDS011;10325;51.468;5.804;2023-06-04T02:55:21;2.77;;;0.70;;
20334;SDS011;10325;51.468;5.804;2023-06-04T02:57:50;1.50;;;0.90;;
20334;SDS011;10325;51.468;5.804;2023-06-04T03:00:23;1.00;;;0.87;;
20334;SDS011;10325;51.468;5.804;2023-06-04T03:02:55;0.93;;;0.60;;
20334;SDS011;10325;51.468;5.804;2023-06-04T03:05:43;0.90;;;0.80;;
20334;SDS011;10325;51.468;5.804;2023-06-04T03:08:12;1.20;;;1.00;;
20334;SDS011;10325;51.468;5.804;2023-06-04T03:10:50;1.17;;;0.77;;
20334;SDS011;10325;51.468;5.804;2023-06-04T03:13:22;0.80;;;0.80;;
20334;SDS011;10325;51.468;5.804;2023-06-04T03:15:53;1.00;;;0.90;;
20334;SDS011;10325;51.468;5.804;2023-06-04T03:18:21;1.00;;;0.90;;
20334;SDS011;10325;51.468;5.804;2023-06-04T03:20:54;0.77;;;0.77;;
20334;SDS011;10325;51.468;5.804;2023-06-04T03:23:26;1.50;;;0.90;;
20334;SDS011;10325;51.468;5.804;2023-06-04T03:25:56;1.10;;;0.80;;
20334;SDS011;10325;51.468;5.804;2023-06-04T03:28:26;2.83;;;0.80;;
20334;SDS011;10325;51.468;5.804;2023-06-04T03:30:57;1.00;;;0.90;;
20334;SDS011;10325;51.468;5.804;2023-06-04T03:33:29;0.70;;;0.63;;
20334;SDS011;10325;51.468;5.804;2023-06-04T03:36:01;0.80;;;0.80;;
20334;SDS011;10325;51.468;5.804;2023-06-04T03:38:36;2.20;;;0.90;;
20334;SDS011;10325;51.468;5.804;2023-06-04T03:41:05;1.30;;;0.90;;
20334;SDS011;10325;51.468;5.804;2023-06-04T03:43:36;0.80;;;0.80;;
20334;SDS011;10325;51.468;5.804;2023-06-04T03:46:08;0.90;;;0.80;;
20334;SDS011;10325;51.468;5.804;2023-06-04T03:48:40;0.70;;;0.70;;
20334;SDS011;10325;51.468;5.804;2023-06-04T03:51:11;1.30;;;0.90;;
20334;SDS011;10325;51.468;5.804;2023-06-04T03:53:41;0.80;;;0.73;;
20334;SDS011;10325;51.468;5.804;2023-06-04T03:56:10;1.33;;;0.90;;
20334;SDS011;10325;51.468;5.804;2023-06-04T03:58:42;1.10;;;0.90;;
20334;SDS011;10325;51.468;5.804;2023-06-04T04:01:13;1.00;;;0.80;;
20334;SDS011;10325;51.468;5.804;2023-06-04T04:03:44;1.17;;;0.83;;
20334;SDS011;10325;51.468;5.804;2023-06-04T04:06:19;0.70;;;0.63;;
20334;SDS011;10325;51.468;5.804;2023-06-04T04:08:49;0.73;;;0.73;;
20334;SDS011;10325;51.468;5.804;2023-06-04T04:11:20;2.23;;;0.83;;
20334;SDS011;10325;51.468;5.804;2023-06-04T04:13:51;1.00;;;0.80;;
20334;SDS011;10325;51.468;5.804;2023-06-04T04:16:20;0.80;;;0.60;;
20334;SDS011;10325;51.468;5.804;2023-06-04T04:18:50;0.83;;;0.83;;
20334;SDS011;10325;51.468;5.804;2023-06-04T04:21:21;1.13;;;0.70;;
20334;SDS011;10325;51.468;5.804;2023-06-04T04:23:51;0.70;;;0.60;;
20334;SDS011;10325;51.468;5.804;2023-06-04T04:26:19;0.80;;;0.80;;
20334;SDS011;10325;51.468;5.804;2023-06-04T04:28:51;0.70;;;0.70;;
20334;SDS011;10325;51.468;5.804;2023-06-04T04:31:32;2.20;;;0.70;;
20334;SDS011;10325;51.468;5.804;2023-06-04T04:34:06;0.73;;;0.73;;
20334;SDS011;10325;51.468;5.804;2023-06-04T04:36:37;0.60;;;0.60;;
20334;SDS011;10325;51.468;5.804;2023-06-04T04:39:10;0.80;;;0.70;;
20334;SDS011;10325;51.468;5.804;2023-06-04T04:41:41;0.73;;;0.63;;
20334;SDS011;10325;51.468;5.804;2023-06-04T04:44:11;1.27;;;1.00;;
20334;SDS011;10325;51.468;5.804;2023-06-04T04:46:40;0.70;;;0.70;;
20334;SDS011;10325;51.468;5.804;2023-06-04T04:49:15;1.10;;;0.87;;
20334;SDS011;10325;51.468;5.804;2023-06-04T04:51:47;1.00;;;0.90;;
20334;SDS011;10325;51.468;5.804;2023-06-04T04:54:17;0.70;;;0.70;;
20334;SDS011;10325;51.468;5.804;2023-06-04T04:56:47;1.00;;;0.70;;
20334;SDS011;10325;51.468;5.804;2023-06-04T04:59:41;0.60;;;0.60;;
20334;SDS011;10325;51.468;5.804;2023-06-04T05:02:13;0.70;;;0.70;;
20334;SDS011;10325;51.468;5.804;2023-06-04T05:04:44;1.30;;;0.80;;
20334;SDS011;10325;51.468;5.804;2023-06-04T05:07:18;0.60;;;0.60;;
20334;SDS011;10325;51.468;5.804;2023-06-04T05:09:50;0.80;;;0.80;;
20334;SDS011;10325;51.468;5.804;2023-06-04T05:12:24;1.00;;;0.87;;
20334;SDS011;10325;51.468;5.804;2023-06-04T05:14:56;0.73;;;0.70;;
20334;SDS011;10325;51.468;5.804;2023-06-04T05:17:25;0.97;;;0.67;;
20334;SDS011;10325;51.468;5.804;2023-06-04T05:19:58;1.57;;;0.90;;
20334;SDS011;10325;51.468;5.804;2023-06-04T05:22:33;1.30;;;1.10;;
20334;SDS011;10325;51.468;5.804;2023-06-04T05:25:06;3.80;;;0.90;;
20334;SDS011;10325;51.468;5.804;2023-06-04T05:27:41;1.23;;;1.00;;
20334;SDS011;10325;51.468;5.804;2023-06-04T05:30:09;0.90;;;0.70;;
20334;SDS011;10325;51.468;5.804;2023-06-04T05:32:39;2.47;;;0.87;;
20334;SDS011;10325;51.468;5.804;2023-06-04T05:35:11;2.60;;;0.80;;
20334;SDS011;10325;51.468;5.804;2023-06-04T05:37:41;1.20;;;0.80;;
20334;SDS011;10325;51.468;5.804;2023-06-04T05:40:12;8.73;;;0.77;;
20334;SDS011;10325;51.468;5.804;2023-06-04T05:42:50;6.93;;;1.00;;
20334;SDS011;10325;51.468;5.804;2023-06-04T05:45:22;1.10;;;0.93;;
20334;SDS011;10325;51.468;5.804;2023-06-04T05:47:53;3.63;;;0.90;;
20334;SDS011;10325;51.468;5.804;2023-06-04T05:50:28;7.60;;;0.87;;
20334;SDS011;10325;51.468;5.804;2023-06-04T05:52:59;6.93;;;1.03;;
20334;SDS011;10325;51.468;5.804;2023-06-04T05:55:30;7.17;;;1.03;;
20334;SDS011;10325;51.468;5.804;2023-06-04T05:58:01;2.40;;;0.80;;
20334;SDS011;10325;51.468;5.804;2023-06-04T06:00:29;5.03;;;1.00;;
20334;SDS011;10325;51.468;5.804;2023-06-04T06:03:00;2.10;;;0.90;;
20334;SDS011;10325;51.468;5.804;2023-06-04T06:05:33;3.17;;;0.97;;
20334;SDS011;10325;51.468;5.804;2023-06-04T06:08:04;2.60;;;0.93;;
20334;SDS011;10325;51.468;5.804;2023-06-04T06:10:34;2.90;;;1.23;;
20334;SDS011;10325;51.468;5.804;2023-06-04T06:13:07;3.97;;;1.10;;
20334;SDS011;10325;51.468;5.804;2023-06-04T06:15:34;3.23;;;0.90;;
20334;SDS011;10325;51.468;5.804;2023-06-04T06:18:03;1.37;;;0.80;;
20334;SDS011;10325;51.468;5.804;2023-06-04T06:20:32;3.37;;;0.90;;
20334;SDS011;10325;51.468;5.804;2023-06-04T06:23:07;1.20;;;0.87;;
20334;SDS011;10325;51.468;5.804;2023-06-04T06:25:40;1.87;;;0.80;;
20334;SDS011;10325;51.468;5.804;2023-06-04T06:28:16;1.40;;;0.90;;
20334;SDS011;10325;51.468;5.804;2023-06-04T06:30:47;2.80;;;1.00;;
20334;SDS011;10325;51.468;5.804;2023-06-04T06:33:19;1.97;;;0.93;;
20334;SDS011;10325;51.468;5.804;2023-06-04T06:35:51;1.37;;;0.87;;
20334;SDS011;10325;51.468;5.804;2023-06-04T06:38:21;1.13;;;0.83;;
20334;SDS011;10325;51.468;5.804;2023-06-04T06:40:51;2.87;;;1.07;;
20334;SDS011;10325;51.468;5.804;2023-06-04T06:43:23;0.77;;;0.73;;
20334;SDS011;10325;51.468;5.804;2023-06-04T06:45:54;2.30;;;1.17;;
20334;SDS011;10325;51.468;5.804;2023-06-04T06:48:26;3.03;;;1.33;;
20334;SDS011;10325;51.468;5.804;2023-06-04T06:50:55;2.67;;;0.97;;
20334;SDS011;10325;51.468;5.804;2023-06-04T06:53:24;2.90;;;1.13;;
20334;SDS011;10325;51.468;5.804;2023-06-04T06:55:55;1.77;;;0.87;;
20334;SDS011;10325;51.468;5.804;2023-06-04T06:58:25;3.67;;;1.00;;
20334;SDS011;10325;51.468;5.804;2023-06-04T07:00:56;1.77;;;1.17;;
20334;SDS011;10325;51.468;5.804;2023-06-04T07:03:28;3.40;;;1.27;;
20334;SDS011;10325;51.468;5.804;2023-06-04T07:06:00;4.93;;;1.30;;
20334;SDS011;10325;51.468;5.804;2023-06-04T07:08:31;3.00;;;1.23;;
20334;SDS011;10325;51.468;5.804;2023-06-04T07:11:01;3.47;;;1.80;;
20334;SDS011;10325;51.468;5.804;2023-06-04T07:13:34;4.07;;;2.03;;
20334;SDS011;10325;51.468;5.804;2023-06-04T07:16:04;4.63;;;1.97;;
20334;SDS011;10325;51.468;5.804;2023-06-04T07:18:37;5.17;;;2.00;;
20334;SDS011;10325;51.468;5.804;2023-06-04T07:21:06;5.03;;;1.83;;
20334;SDS011;10325;51.468;5.804;2023-06-04T07:23:37;4.03;;;1.97;;
20334;SDS011;10325;51.468;5.804;2023-06-04T07:26:08;4.37;;;1.80;;
20334;SDS011;10325;51.468;5.804;2023-06-04T07:28:35;4.63;;;2.00;;
20334;SDS011;10325;51.468;5.804;2023-06-04T07:31:06;2.83;;;1.67;;
20334;SDS011;10325;51.468;5.804;2023-06-04T07:33:37;2.40;;;1.60;;
20334;SDS011;10325;51.468;5.804;2023-06-04T07:36:24;4.53;;;1.83;;
20334;SDS011;10325;51.468;5.804;2023-06-04T07:38:53;4.73;;;1.80;;
20334;SDS011;10325;51.468;5.804;2023-06-04T07:41:20;3.33;;;1.90;;
20334;SDS011;10325;51.468;5.804;2023-06-04T07:43:50;2.17;;;1.60;;
20334;SDS011;10325;51.468;5.804;2023-06-04T07:46:20;2.90;;;1.63;;
20334;SDS011;10325;51.468;5.804;2023-06-04T07:48:50;4.00;;;1.50;;
20334;SDS011;10325;51.468;5.804;2023-06-04T07:51:21;2.93;;;1.50;;
20334;SDS011;10325;51.468;5.804;2023-06-04T07:53:55;2.83;;;1.50;;
20334;SDS011;10325;51.468;5.804;2023-06-04T07:56:24;2.77;;;1.40;;
20334;SDS011;10325;51.468;5.804;2023-06-04T07:58:53;2.00;;;1.50;;
20334;SDS011;10325;51.468;5.804;2023-06-04T08:01:26;3.37;;;1.60;;
20334;SDS011;10325;51.468;5.804;2023-06-04T08:03:55;2.80;;;1.50;;
20334;SDS011;10325;51.468;5.804;2023-06-04T08:06:27;1.37;;;1.03;;
20334;SDS011;10325;51.468;5.804;2023-06-04T08:08:59;2.33;;;1.50;;
20334;SDS011;10325;51.468;5.804;2023-06-04T08:11:32;2.80;;;1.30;;
20334;SDS011;10325;51.468;5.804;2023-06-04T08:14:02;2.40;;;1.40;;
20334;SDS011;10325;51.468;5.804;2023-06-04T08:16:31;2.70;;;1.30;;
20334;SDS011;10325;51.468;5.804;2023-06-04T08:19:00;2.53;;;1.30;;
20334;SDS011;10325;51.468;5.804;2023-06-04T08:21:32;3.03;;;1.40;;
20334;SDS011;10325;51.468;5.804;2023-06-04T08:24:03;2.83;;;1.13;;
20334;SDS011;10325;51.468;5.804;2023-06-04T08:26:36;2.60;;;1.10;;
20334;SDS011;10325;51.468;5.804;2023-06-04T08:29:07;3.13;;;1.40;;
20334;SDS011;10325;51.468;5.804;2023-06-04T08:31:38;2.50;;;1.40;;
20334;SDS011;10325;51.468;5.804;2023-06-04T08:34:10;2.33;;;1.40;;
20334;SDS011;10325;51.468;5.804;2023-06-04T08:36:46;2.30;;;1.30;;
20334;SDS011;10325;51.468;5.804;2023-06-04T08:39:18;4.87;;;1.40;;
20334;SDS011;10325;51.468;5.804;2023-06-04T08:41:54;1.13;;;1.00;;
20334;SDS011;10325;51.468;5.804;2023-06-04T08:44:31;1.60;;;1.00;;
20334;SDS011;10325;51.468;5.804;2023-06-04T08:47:03;1.37;;;1.27;;
20334;SDS011;10325;51.468;5.804;2023-06-04T08:49:37;1.23;;;1.10;;
20334;SDS011;10325;51.468;5.804;2023-06-04T08:52:27;1.67;;;1.40;;
20334;SDS011;10325;51.468;5.804;2023-06-04T08:55:16;1.17;;;1.07;;
20334;SDS011;10325;51.468;5.804;2023-06-04T08:57:47;2.50;;;1.23;;
20334;SDS011;10325;51.468;5.804;2023-06-04T09:00:26;1.77;;;1.30;;
20334;SDS011;10325;51.468;5.804;2023-06-04T09:02:57;3.27;;;1.43;;
20334;SDS011;10325;51.468;5.804;2023-06-04T09:05:43;1.43;;;1.07;;
20334;SDS011;10325;51.468;5.804;2023-06-04T09:08:31;2.30;;;1.17;;
20334;SDS011;10325;51.468;5.804;2023-06-04T09:11:08;2.07;;;1.03;;
20334;SDS011;10325;51.468;5.804;2023-06-04T09:13:43;1.57;;;1.10;;
20334;SDS011;10325;51.468;5.804;2023-06-04T09:16:24;1.27;;;1.17;;
20334;SDS011;10325;51.468;5.804;2023-06-04T09:18:54;2.13;;;1.20;;
20334;SDS011;10325;51.468;5.804;2023-06-04T09:21:23;1.20;;;1.07;;
20334;SDS011;10325;51.468;5.804;2023-06-04T09:23:55;2.83;;;1.10;;
20334;SDS011;10325;51.468;5.804;2023-06-04T09:26:27;1.10;;;0.83;;
20334;SDS011;10325;51.468;5.804;2023-06-04T09:28:58;1.33;;;0.90;;
20334;SDS011;10325;51.468;5.804;2023-06-04T09:31:28;1.33;;;0.90;;
20334;SDS011;10325;51.468;5.804;2023-06-04T09:34:02;1.57;;;1.20;;
20334;SDS011;10325;51.468;5.804;2023-06-04T09:36:35;1.63;;;1.20;;
20334;SDS011;10325;51.468;5.804;2023-06-04T09:39:17;1.30;;;1.20;;
20334;SDS011;10325;51.468;5.804;2023-06-04T09:42:00;1.00;;;0.93;;
20334;SDS011;10325;51.468;5.804;2023-06-04T09:44:29;1.77;;;1.00;;
20334;SDS011;10325;51.468;5.804;2023-06-04T09:47:00;1.50;;;1.00;;
20334;SDS011;10325;51.468;5.804;2023-06-04T09:49:39;2.03;;;1.17;;
20334;SDS011;10325;51.468;5.804;2023-06-04T09:52:13;1.03;;;0.93;;
20334;SDS011;10325;51.468;5.804;2023-06-04T09:54:44;1.20;;;1.10;;
20334;SDS011;10325;51.468;5.804;2023-06-04T09:57:15;1.17;;;1.07;;
20334;SDS011;10325;51.468;5.804;2023-06-04T09:59:46;2.17;;;1.17;;
20334;SDS011;10325;51.468;5.804;2023-06-04T10:02:19;1.60;;;1.20;;
20334;SDS011;10325;51.468;5.804;2023-06-04T10:04:56;2.23;;;1.03;;
20334;SDS011;10325;51.468;5.804;2023-06-04T10:07:27;1.53;;;1.03;;
20334;SDS011;10325;51.468;5.804;2023-06-04T10:09:59;1.50;;;1.00;;
20334;SDS011;10325;51.468;5.804;2023-06-04T10:12:30;1.13;;;1.03;;
20334;SDS011;10325;51.468;5.804;2023-06-04T10:15:07;1.23;;;1.13;;
20334;SDS011;10325;51.468;5.804;2023-06-04T10:17:40;1.27;;;0.90;;
20334;SDS011;10325;51.468;5.804;2023-06-04T10:20:11;1.10;;;0.97;;
20334;SDS011;10325;51.468;5.804;2023-06-04T10:22:42;0.80;;;0.80;;
20334;SDS011;10325;51.468;5.804;2023-06-04T10:25:12;2.67;;;1.20;;
20334;SDS011;10325;51.468;5.804;2023-06-04T10:27:43;2.43;;;0.80;;
20334;SDS011;10325;51.468;5.804;2023-06-04T10:30:16;1.20;;;1.00;;
20334;SDS011;10325;51.468;5.804;2023-06-04T10:32:48;2.30;;;0.77;;
20334;SDS011;10325;51.468;5.804;2023-06-04T10:35:30;2.07;;;1.10;;
20334;SDS011;10325;51.468;5.804;2023-06-04T10:38:10;1.17;;;0.93;;
20334;SDS011;10325;51.468;5.804;2023-06-04T10:40:40;0.80;;;0.80;;
20334;SDS011;10325;51.468;5.804;2023-06-04T10:43:12;0.80;;;0.80;;
20334;SDS011;10325;51.468;5.804;2023-06-04T10:45:41;1.00;;;0.87;;
20334;SDS011;10325;51.468;5.804;2023-06-04T10:48:12;0.70;;;0.67;;
20334;SDS011;10325;51.468;5.804;2023-06-04T10:50:49;1.33;;;1.20;;
20334;SDS011;10325;51.468;5.804;2023-06-04T10:53:35;1.53;;;1.10;;
20334;SDS011;10325;51.468;5.804;2023-06-04T10:56:06;1.00;;;0.90;;
20334;SDS011;10325;51.468;5.804;2023-06-04T10:58:37;0.90;;;0.90;;
20334;SDS011;10325;51.468;5.804;2023-06-04T11:01:06;1.10;;;1.00;;
20334;SDS011;10325;51.468;5.804;2023-06-04T11:03:37;1.43;;;0.80;;
20334;SDS011;10325;51.468;5.804;2023-06-04T11:06:15;1.30;;;1.20;;
20334;SDS011;10325;51.468;5.804;2023-06-04T11:08:48;1.40;;;1.00;;
20334;SDS011;10325;51.468;5.804;2023-06-04T11:11:19;0.90;;;0.90;;
20334;SDS011;10325;51.468;5.804;2023-06-04T11:13:47;0.87;;;0.83;;
20334;SDS011;10325;51.468;5.804;2023-06-04T11:16:20;1.37;;;1.03;;
20334;SDS011;10325;51.468;5.804;2023-06-04T11:19:04;2.40;;;1.00;;
20334;SDS011;10325;51.468;5.804;2023-06-04T11:21:33;1.40;;;1.00;;
20334;SDS011;10325;51.468;5.804;2023-06-04T11:24:19;1.00;;;0.90;;
20334;SDS011;10325;51.468;5.804;2023-06-04T11:26:46;2.07;;;1.00;;
20334;SDS011;10325;51.468;5.804;2023-06-04T11:29:34;1.03;;;0.87;;
20334;SDS011;10325;51.468;5.804;2023-06-04T11:32:08;0.80;;;0.80;;
20334;SDS011;10325;51.468;5.804;2023-06-04T11:34:37;1.10;;;1.00;;
20334;SDS011;10325;51.468;5.804;2023-06-04T11:37:09;2.47;;;1.00;;
20334;SDS011;10325;51.468;5.804;2023-06-04T11:39:39;2.40;;;0.90;;
20334;SDS011;10325;51.468;5.804;2023-06-04T11:42:12;1.30;;;0.90;;
20334;SDS011;10325;51.468;5.804;2023-06-04T11:44:42;1.47;;;1.00;;
20334;SDS011;10325;51.468;5.804;2023-06-04T11:47:15;1.00;;;1.00;;
20334;SDS011;10325;51.468;5.804;2023-06-04T11:49:48;1.40;;;0.90;;
20334;SDS011;10325;51.468;5.804;2023-06-04T11:52:37;1.20;;;1.10;;
20334;SDS011;10325;51.468;5.804;2023-06-04T11:55:11;1.37;;;1.10;;
20334;SDS011;10325;51.468;5.804;2023-06-04T11:57:59;2.37;;;1.20;;
20334;SDS011;10325;51.468;5.804;2023-06-04T12:00:28;1.13;;;1.07;;
20334;SDS011;10325;51.468;5.804;2023-06-04T12:03:01;2.47;;;1.17;;
20334;SDS011;10325;51.468;5.804;2023-06-04T12:05:32;1.07;;;1.00;;
20334;SDS011;10325;51.468;5.804;2023-06-04T12:08:10;1.30;;;1.20;;
20334;SDS011;10325;51.468;5.804;2023-06-04T12:10:40;1.77;;;1.00;;
20334;SDS011;10325;51.468;5.804;2023-06-04T12:13:12;1.20;;;1.10;;
20334;SDS011;10325;51.468;5.804;2023-06-04T12:15:39;0.97;;;0.90;;
20334;SDS011;10325;51.468;5.804;2023-06-04T12:18:10;2.87;;;1.20;;
20334;SDS011;10325;51.468;5.804;2023-06-04T12:20:39;2.00;;;1.13;;
20334;SDS011;10325;51.468;5.804;2023-06-04T12:23:19;1.03;;;0.90;;
20334;SDS011;10325;51.468;5.804;2023-06-04T12:25:53;1.03;;;1.00;;
20334;SDS011;10325;51.468;5.804;2023-06-04T12:28:24;1.50;;;0.90;;
20334;SDS011;10325;51.468;5.804;2023-06-04T12:30:53;1.07;;;0.97;;
20334;SDS011;10325;51.468;5.804;2023-06-04T12:33:25;1.33;;;1.17;;
20334;SDS011;10325;51.468;5.804;2023-06-04T12:35:56;1.23;;;1.10;;
20334;SDS011;10325;51.468;5.804;2023-06-04T12:38:25;1.13;;;1.10;;
20334;SDS011;10325;51.468;5.804;2023-06-04T12:40:57;1.53;;;1.30;;
20334;SDS011;10325;51.468;5.804;2023-06-04T12:43:28;1.33;;;1.00;;
20334;SDS011;10325;51.468;5.804;2023-06-04T12:46:04;1.33;;;1.10;;
20334;SDS011;10325;51.468;5.804;2023-06-04T12:48:36;1.30;;;1.20;;
20334;SDS011;10325;51.468;5.804;2023-06-04T12:51:05;1.23;;;1.10;;
20334;SDS011;10325;51.468;5.804;2023-06-04T12:53:42;1.33;;;1.20;;
20334;SDS011;10325;51.468;5.804;2023-06-04T12:56:17;2.13;;;0.97;;
20334;SDS011;10325;51.468;5.804;2023-06-04T12:58:46;1.23;;;1.00;;
20334;SDS011;10325;51.468;5.804;2023-06-04T13:01:16;1.83;;;1.10;;
20334;SDS011;10325;51.468;5.804;2023-06-04T13:03:44;2.00;;;1.30;;
20334;SDS011;10325;51.468;5.804;2023-06-04T13:06:17;0.93;;;0.90;;
20334;SDS011;10325;51.468;5.804;2023-06-04T13:08:45;1.40;;;1.07;;
20334;SDS011;10325;51.468;5.804;2023-06-04T13:11:16;1.37;;;0.93;;
20334;SDS011;10325;51.468;5.804;2023-06-04T13:13:49;2.30;;;0.90;;
20334;SDS011;10325;51.468;5.804;2023-06-04T13:16:21;0.93;;;0.90;;
20334;SDS011;10325;51.468;5.804;2023-06-04T13:18:54;0.90;;;0.90;;
20334;SDS011;10325;51.468;5.804;2023-06-04T13:21:25;1.33;;;1.23;;
20334;SDS011;10325;51.468;5.804;2023-06-04T13:23:57;1.10;;;1.03;;
20334;SDS011;10325;51.468;5.804;2023-06-04T13:26:28;1.70;;;1.13;;
20334;SDS011;10325;51.468;5.804;2023-06-04T13:28:56;2.50;;;1.00;;
20334;SDS011;10325;51.468;5.804;2023-06-04T13:31:28;1.73;;;1.30;;
20334;SDS011;10325;51.468;5.804;2023-06-04T13:33:59;1.77;;;1.17;;
20334;SDS011;10325;51.468;5.804;2023-06-04T13:36:41;1.10;;;1.00;;
20334;SDS011;10325;51.468;5.804;2023-06-04T13:39:13;3.13;;;1.30;;
20334;SDS011;10325;51.468;5.804;2023-06-04T13:41:43;1.53;;;1.30;;
20334;SDS011;10325;51.468;5.804;2023-06-04T13:44:12;1.20;;;1.10;;
20334;SDS011;10325;51.468;5.804;2023-06-04T13:46:41;1.00;;;1.00;;
20334;SDS011;10325;51.468;5.804;2023-06-04T13:49:10;1.63;;;1.10;;
20334;SDS011;10325;51.468;5.804;2023-06-04T13:51:41;0.93;;;0.87;;
20334;SDS011;10325;51.468;5.804;2023-06-04T13:54:11;1.10;;;1.00;;
20334;SDS011;10325;51.468;5.804;2023-06-04T13:56:47;1.90;;;1.20;;
20334;SDS011;10325;51.468;5.804;2023-06-04T13:59:18;1.77;;;1.27;;
20334;SDS011;10325;51.468;5.804;2023-06-04T14:01:49;1.37;;;1.27;;
20334;SDS011;10325;51.468;5.804;2023-06-04T14:04:21;1.00;;;0.90;;
20334;SDS011;10325;51.468;5.804;2023-06-04T14:06:48;1.53;;;1.23;;
20334;SDS011;10325;51.468;5.804;2023-06-04T14:09:22;1.43;;;1.30;;
20334;SDS011;10325;51.468;5.804;2023-06-04T14:11:54;1.10;;;1.00;;
20334;SDS011;10325;51.468;5.804;2023-06-04T14:14:23;1.77;;;1.30;;
20334;SDS011;10325;51.468;5.804;2023-06-04T14:16:54;1.53;;;1.10;;
20334;SDS011;10325;51.468;5.804;2023-06-04T14:19:28;1.00;;;0.93;;
20334;SDS011;10325;51.468;5.804;2023-06-04T14:21:58;1.10;;;1.00;;
20334;SDS011;10325;51.468;5.804;2023-06-04T14:24:29;1.00;;;1.00;;
20334;SDS011;10325;51.468;5.804;2023-06-04T14:26:58;1.43;;;1.13;;
20334;SDS011;10325;51.468;5.804;2023-06-04T14:29:30;1.37;;;1.13;;
20334;SDS011;10325;51.468;5.804;2023-06-04T14:32:00;1.43;;;1.10;;
20334;SDS011;10325;51.468;5.804;2023-06-04T14:34:31;1.47;;;1.10;;
20334;SDS011;10325;51.468;5.804;2023-06-04T14:37:03;0.93;;;0.93;;
20334;SDS011;10325;51.468;5.804;2023-06-04T14:39:35;2.20;;;1.13;;
20334;SDS011;10325;51.468;5.804;2023-06-04T14:42:16;1.00;;;1.00;;
20334;SDS011;10325;51.468;5.804;2023-06-04T14:44:48;1.40;;;1.20;;
20334;SDS011;10325;51.468;5.804;2023-06-04T14:47:18;0.87;;;0.87;;
20334;SDS011;10325;51.468;5.804;2023-06-04T14:49:52;1.43;;;1.10;;
20334;SDS011;10325;51.468;5.804;2023-06-04T14:52:24;1.10;;;1.00;;
20334;SDS011;10325;51.468;5.804;2023-06-04T14:54:54;0.80;;;0.80;;
20334;SDS011;10325;51.468;5.804;2023-06-04T14:57:25;1.00;;;0.90;;
20334;SDS011;10325;51.468;5.804;2023-06-04T14:59:55;1.10;;;1.00;;
20334;SDS011;10325;51.468;5.804;2023-06-04T15:02:27;1.30;;;1.20;;
20334;SDS011;10325;51.468;5.804;2023-06-04T15:05:00;1.30;;;1.20;;
20334;SDS011;10325;51.468;5.804;2023-06-04T15:07:30;1.57;;;1.20;;
20334;SDS011;10325;51.468;5.804;2023-06-04T15:10:02;1.30;;;1.20;;
20334;SDS011;10325;51.468;5.804;2023-06-04T15:12:34;1.30;;;1.20;;
20334;SDS011;10325;51.468;5.804;2023-06-04T15:15:10;1.83;;;1.20;;
20334;SDS011;10325;51.468;5.804;2023-06-04T15:17:42;1.37;;;1.20;;
20334;SDS011;10325;51.468;5.804;2023-06-04T15:20:15;1.30;;;1.20;;
20334;SDS011;10325;51.468;5.804;2023-06-04T15:22:46;1.30;;;1.20;;
20334;SDS011;10325;51.468;5.804;2023-06-04T15:25:17;1.27;;;1.17;;